sensor_id;sensor_type;location;lat;lon;timestamp;pressure;altitude;pressure_sealevel;temperature;humidity
51603;BME280;37954;51.980;5.850;2023-03-26T00:00:17;100349.97;;;8.96;90.55
51603;BME280;37954;51.980;5.850;2023-03-26T00:04:29;100356.66;;;9.05;90.70
51603;BME280;37954;51.980;5.850;2023-03-26T00:08:44;100351.41;;;8.99;90.50
51603;BME280;37954;51.980;5.850;2023-03-26T00:12:56;100359.88;;;9.14;90.58
51603;BME280;37954;51.980;5.850;2023-03-26T00:17:08;100372.53;;;9.25;90.86
51603;BME280;37954;51.980;5.850;2023-03-26T00:21:21;100325.34;;;9.06;90.79
51603;BME280;37954;51.980;5.850;2023-03-26T00:25:42;100344.09;;;9.24;90.97
51603;BME280;37954;51.980;5.850;2023-03-26T00:29:56;100349.16;;;9.32;90.52
51603;BME280;37954;51.980;5.850;2023-03-26T00:34:10;100352.19;;;9.36;90.56
51603;BME280;37954;51.980;5.850;2023-03-26T00:38:22;100327.94;;;9.31;90.74
51603;BME280;37954;51.980;5.850;2023-03-26T00:42:38;100341.25;;;9.37;90.30
51603;BME280;37954;51.980;5.850;2023-03-26T00:46:50;100319.16;;;9.24;90.33
51603;BME280;37954;51.980;5.850;2023-03-26T00:51:01;100330.84;;;9.29;89.88
51603;BME280;37954;51.980;5.850;2023-03-26T00:55:13;100297.81;;;9.17;89.88
51603;BME280;37954;51.980;5.850;2023-03-26T00:59:26;100309.63;;;9.28;89.88
51603;BME280;37954;51.980;5.850;2023-03-26T01:03:42;100312.91;;;9.30;89.98
51603;BME280;37954;51.980;5.850;2023-03-26T01:08:21;100298.16;;;9.21;89.78
51603;BME280;37954;51.980;5.850;2023-03-26T01:12:34;100306.34;;;9.26;89.87
51603;BME280;37954;51.980;5.850;2023-03-26T01:16:50;100272.78;;;9.05;90.09
51603;BME280;37954;51.980;5.850;2023-03-26T01:21:03;100295.63;;;9.26;90.06
51603;BME280;37954;51.980;5.850;2023-03-26T01:25:21;100283.94;;;9.20;90.04
51603;BME280;37954;51.980;5.850;2023-03-26T01:34:16;100283.78;;;9.33;90.84
51603;BME280;37954;51.980;5.850;2023-03-26T01:43:31;100254.09;;;9.35;91.02
51603;BME280;37954;51.980;5.850;2023-03-26T01:47:45;100252.69;;;9.44;90.90
51603;BME280;37954;51.980;5.850;2023-03-26T01:51:57;100255.38;;;9.44;90.99
51603;BME280;37954;51.980;5.850;2023-03-26T02:05:07;100253.31;;;9.58;91.11
51603;BME280;37954;51.980;5.850;2023-03-26T02:09:24;100213.53;;;9.43;91.09
51603;BME280;37954;51.980;5.850;2023-03-26T02:13:41;100226.38;;;9.53;91.45
51603;BME280;37954;51.980;5.850;2023-03-26T02:17:53;100218.09;;;9.54;91.40
51603;BME280;37954;51.980;5.850;2023-03-26T02:22:05;100214.28;;;9.50;91.52
51603;BME280;37954;51.980;5.850;2023-03-26T02:26:23;100221.00;;;9.53;91.13
51603;BME280;37954;51.980;5.850;2023-03-26T02:30:49;100226.16;;;9.54;91.03
51603;BME280;37954;51.980;5.850;2023-03-26T02:35:01;100213.44;;;9.50;91.05
51603;BME280;37954;51.980;5.850;2023-03-26T02:39:13;100193.38;;;9.40;90.96
51603;BME280;37954;51.980;5.850;2023-03-26T02:43:32;100203.88;;;9.54;90.87
51603;BME280;37954;51.980;5.850;2023-03-26T02:47:44;100177.50;;;9.39;91.04
51603;BME280;37954;51.980;5.850;2023-03-26T02:52:29;100182.56;;;9.47;90.65
51603;BME280;37954;51.980;5.850;2023-03-26T02:56:43;100190.59;;;9.47;91.05
51603;BME280;37954;51.980;5.850;2023-03-26T03:01:14;100187.56;;;9.55;90.81
51603;BME280;37954;51.980;5.850;2023-03-26T03:05:35;100191.88;;;9.56;90.93
51603;BME280;37954;51.980;5.850;2023-03-26T03:10:12;100175.78;;;9.45;91.38
51603;BME280;37954;51.980;5.850;2023-03-26T03:14:43;100173.47;;;9.48;91.11
51603;BME280;37954;51.980;5.850;2023-03-26T03:18:55;100179.88;;;9.59;90.96
51603;BME280;37954;51.980;5.850;2023-03-26T03:23:19;100175.78;;;9.56;90.78
51603;BME280;37954;51.980;5.850;2023-03-26T03:27:32;100170.44;;;9.56;91.10
51603;BME280;37954;51.980;5.850;2023-03-26T03:31:51;100164.84;;;9.58;90.95
51603;BME280;37954;51.980;5.850;2023-03-26T03:36:22;100153.31;;;9.57;90.87
51603;BME280;37954;51.980;5.850;2023-03-26T03:40:43;100153.06;;;9.59;90.73
51603;BME280;37954;51.980;5.850;2023-03-26T03:44:55;100159.03;;;9.61;90.72
51603;BME280;37954;51.980;5.850;2023-03-26T03:49:27;100151.22;;;9.59;90.71
51603;BME280;37954;51.980;5.850;2023-03-26T03:53:41;100157.97;;;9.62;90.47
51603;BME280;37954;51.980;5.850;2023-03-26T03:57:54;100146.22;;;9.63;90.67
51603;BME280;37954;51.980;5.850;2023-03-26T04:02:08;100150.06;;;9.67;90.26
51603;BME280;37954;51.980;5.850;2023-03-26T04:06:30;100138.97;;;9.63;90.08
51603;BME280;37954;51.980;5.850;2023-03-26T04:10:43;100132.22;;;9.61;90.23
51603;BME280;37954;51.980;5.850;2023-03-26T04:14:55;100121.50;;;9.61;90.09
51603;BME280;37954;51.980;5.850;2023-03-26T04:19:07;100124.75;;;9.63;89.76
51603;BME280;37954;51.980;5.850;2023-03-26T04:23:20;100118.94;;;9.66;89.78
51603;BME280;37954;51.980;5.850;2023-03-26T04:27:38;100114.97;;;9.68;89.90
51603;BME280;37954;51.980;5.850;2023-03-26T04:32:24;100107.03;;;9.62;89.91
51603;BME280;37954;51.980;5.850;2023-03-26T04:36:41;100104.13;;;9.63;89.72
51603;BME280;37954;51.980;5.850;2023-03-26T04:40:53;100099.34;;;9.65;89.80
51603;BME280;37954;51.980;5.850;2023-03-26T04:45:25;100083.94;;;9.61;89.66
51603;BME280;37954;51.980;5.850;2023-03-26T04:49:40;100080.00;;;9.63;89.64
51603;BME280;37954;51.980;5.850;2023-03-26T04:53:55;100081.28;;;9.61;89.70
51603;BME280;37954;51.980;5.850;2023-03-26T04:58:19;100068.69;;;9.61;89.62
51603;BME280;37954;51.980;5.850;2023-03-26T05:02:41;100066.00;;;9.61;89.55
51603;BME280;37954;51.980;5.850;2023-03-26T05:06:55;100052.81;;;9.60;89.19
51603;BME280;37954;51.980;5.850;2023-03-26T05:11:17;100054.22;;;9.62;89.16
51603;BME280;37954;51.980;5.850;2023-03-26T05:15:28;100051.53;;;9.62;89.41
51603;BME280;37954;51.980;5.850;2023-03-26T05:19:40;100046.41;;;9.61;89.08
51603;BME280;37954;51.980;5.850;2023-03-26T05:23:52;100044.91;;;9.65;89.30
51603;BME280;37954;51.980;5.850;2023-03-26T05:28:06;100036.03;;;9.64;88.89
51603;BME280;37954;51.980;5.850;2023-03-26T05:32:35;100018.19;;;9.58;89.03
51603;BME280;37954;51.980;5.850;2023-03-26T05:36:47;100016.69;;;9.62;88.78
51603;BME280;37954;51.980;5.850;2023-03-26T05:41:21;100010.50;;;9.62;88.62
51603;BME280;37954;51.980;5.850;2023-03-26T05:45:34;100009.22;;;9.64;88.59
51603;BME280;37954;51.980;5.850;2023-03-26T05:49:59;99999.56;;;9.63;88.63
51603;BME280;37954;51.980;5.850;2023-03-26T05:54:11;99991.75;;;9.62;88.31
51603;BME280;37954;51.980;5.850;2023-03-26T05:58:41;99993.13;;;9.64;88.14
51603;BME280;37954;51.980;5.850;2023-03-26T06:03:27;99990.69;;;9.63;88.16
51603;BME280;37954;51.980;5.850;2023-03-26T06:08:01;99972.03;;;9.56;88.43
51603;BME280;37954;51.980;5.850;2023-03-26T06:12:20;99968.53;;;9.56;88.09
51603;BME280;37954;51.980;5.850;2023-03-26T06:16:32;99969.13;;;9.58;88.33
51603;BME280;37954;51.980;5.850;2023-03-26T06:21:17;99955.94;;;9.56;88.20
51603;BME280;37954;51.980;5.850;2023-03-26T06:25:33;99958.63;;;9.56;88.21
51603;BME280;37954;51.980;5.850;2023-03-26T06:29:58;99942.19;;;9.53;87.87
51603;BME280;37954;51.980;5.850;2023-03-26T06:34:21;99950.34;;;9.58;87.89
51603;BME280;37954;51.980;5.850;2023-03-26T06:38:32;99933.59;;;9.51;87.79
51603;BME280;37954;51.980;5.850;2023-03-26T06:42:46;99934.66;;;9.50;87.76
51603;BME280;37954;51.980;5.850;2023-03-26T06:47:24;99948.38;;;9.53;87.68
51603;BME280;37954;51.980;5.850;2023-03-26T06:52:08;99950.25;;;9.53;87.96
51603;BME280;37954;51.980;5.850;2023-03-26T06:56:22;99949.34;;;9.47;87.99
51603;BME280;37954;51.980;5.850;2023-03-26T07:01:06;99940.47;;;9.47;87.80
51603;BME280;37954;51.980;5.850;2023-03-26T07:05:37;99945.03;;;9.46;87.86
51603;BME280;37954;51.980;5.850;2023-03-26T07:10:09;99945.25;;;9.45;87.93
51603;BME280;37954;51.980;5.850;2023-03-26T07:14:32;99947.13;;;9.44;87.81
51603;BME280;37954;51.980;5.850;2023-03-26T07:19:10;99941.63;;;9.51;87.95
51603;BME280;37954;51.980;5.850;2023-03-26T07:23:25;99933.09;;;9.54;87.91
51603;BME280;37954;51.980;5.850;2023-03-26T07:28:12;99939.63;;;9.58;88.01
51603;BME280;37954;51.980;5.850;2023-03-26T07:33:04;99935.91;;;9.59;88.08
51603;BME280;37954;51.980;5.850;2023-03-26T07:38:00;99929.72;;;9.58;88.08
51603;BME280;37954;51.980;5.850;2023-03-26T07:42:46;99932.53;;;9.63;88.03
51603;BME280;37954;51.980;5.850;2023-03-26T07:47:26;99922.38;;;9.54;88.12
51603;BME280;37954;51.980;5.850;2023-03-26T07:51:58;99917.84;;;9.54;87.98
51603;BME280;37954;51.980;5.850;2023-03-26T07:56:48;99903.16;;;9.57;88.29
51603;BME280;37954;51.980;5.850;2023-03-26T08:05:50;99897.78;;;9.57;88.07
51603;BME280;37954;51.980;5.850;2023-03-26T08:14:54;99901.59;;;9.72;88.42
51603;BME280;37954;51.980;5.850;2023-03-26T08:24:04;99904.47;;;9.83;88.25
51603;BME280;37954;51.980;5.850;2023-03-26T08:33:32;99903.84;;;9.92;88.04
51603;BME280;37954;51.980;5.850;2023-03-26T08:37:47;99903.91;;;9.81;88.04
51603;BME280;37954;51.980;5.850;2023-03-26T08:42:48;99902.50;;;9.78;88.07
51603;BME280;37954;51.980;5.850;2023-03-26T08:55:54;99908.16;;;9.65;88.06
51603;BME280;37954;51.980;5.850;2023-03-26T09:00:18;99916.31;;;9.58;88.24
51603;BME280;37954;51.980;5.850;2023-03-26T11:34:51;99950.28;;;10.50;87.66
51603;BME280;37954;51.980;5.850;2023-03-26T15:42:42;100173.66;;;10.23;66.24
51603;BME280;37954;51.980;5.850;2023-03-26T15:56:24;100207.81;;;10.16;65.96
51603;BME280;37954;51.980;5.850;2023-03-26T16:01:12;100191.16;;;10.02;65.88
51603;BME280;37954;51.980;5.850;2023-03-26T16:09:45;100240.44;;;9.90;66.14
51603;BME280;37954;51.980;5.850;2023-03-26T16:14:16;100242.81;;;9.98;66.47
51603;BME280;37954;51.980;5.850;2023-03-26T16:18:36;100255.13;;;9.87;65.11
51603;BME280;37954;51.980;5.850;2023-03-26T16:22:57;100263.41;;;9.74;64.75
51603;BME280;37954;51.980;5.850;2023-03-26T16:31:26;100269.97;;;9.48;63.62
51603;BME280;37954;51.980;5.850;2023-03-26T16:36:03;100279.50;;;9.44;63.49
51603;BME280;37954;51.980;5.850;2023-03-26T16:48:56;100313.16;;;9.40;63.90
51603;BME280;37954;51.980;5.850;2023-03-26T16:57:46;100326.06;;;9.31;63.51
51603;BME280;37954;51.980;5.850;2023-03-26T17:06:46;100331.06;;;9.28;64.58
51603;BME280;37954;51.980;5.850;2023-03-26T17:20:28;100379.28;;;9.10;63.59
51603;BME280;37954;51.980;5.850;2023-03-26T17:24:48;100390.75;;;8.98;62.92
51603;BME280;37954;51.980;5.850;2023-03-26T17:33:34;100414.09;;;8.66;61.52
51603;BME280;37954;51.980;5.850;2023-03-26T17:37:47;100425.69;;;8.60;61.86
51603;BME280;37954;51.980;5.850;2023-03-26T17:42:15;100429.66;;;8.51;61.48
51603;BME280;37954;51.980;5.850;2023-03-26T17:46:41;100444.56;;;8.41;60.63
51603;BME280;37954;51.980;5.850;2023-03-26T17:51:00;100458.16;;;8.39;61.32
51603;BME280;37954;51.980;5.850;2023-03-26T17:55:22;100456.78;;;8.23;60.76
51603;BME280;37954;51.980;5.850;2023-03-26T17:59:36;100470.41;;;8.15;60.63
51603;BME280;37954;51.980;5.850;2023-03-26T18:03:53;100478.91;;;8.06;61.09
51603;BME280;37954;51.980;5.850;2023-03-26T18:09:01;100502.97;;;8.06;60.76
51603;BME280;37954;51.980;5.850;2023-03-26T18:17:47;100516.63;;;7.91;60.92
51603;BME280;37954;51.980;5.850;2023-03-26T18:22:03;100513.56;;;7.81;61.23
51603;BME280;37954;51.980;5.850;2023-03-26T18:26:20;100521.00;;;7.72;60.33
51603;BME280;37954;51.980;5.850;2023-03-26T18:30:43;100541.56;;;7.72;59.80
51603;BME280;37954;51.980;5.850;2023-03-26T18:35:16;100550.19;;;7.67;59.02
51603;BME280;37954;51.980;5.850;2023-03-26T18:39:29;100564.19;;;7.69;58.39
51603;BME280;37954;51.980;5.850;2023-03-26T18:43:41;100570.16;;;7.71;58.30
51603;BME280;37954;51.980;5.850;2023-03-26T18:47:59;100569.75;;;7.61;58.30
51603;BME280;37954;51.980;5.850;2023-03-26T18:52:15;100588.06;;;7.57;57.69
51603;BME280;37954;51.980;5.850;2023-03-26T18:56:35;100602.88;;;7.53;58.34
51603;BME280;37954;51.980;5.850;2023-03-26T19:00:48;100607.81;;;7.37;58.13
51603;BME280;37954;51.980;5.850;2023-03-26T19:05:03;100610.06;;;7.20;58.70
51603;BME280;37954;51.980;5.850;2023-03-26T19:09:15;100616.38;;;6.99;58.96
51603;BME280;37954;51.980;5.850;2023-03-26T19:13:42;100634.66;;;6.95;59.58
51603;BME280;37954;51.980;5.850;2023-03-26T19:17:59;100645.13;;;6.84;59.84
51603;BME280;37954;51.980;5.850;2023-03-26T19:22:19;100636.47;;;6.75;59.92
51603;BME280;37954;51.980;5.850;2023-03-26T19:26:31;100665.25;;;6.86;59.78
51603;BME280;37954;51.980;5.850;2023-03-26T19:30:43;100661.28;;;6.76;60.26
51603;BME280;37954;51.980;5.850;2023-03-26T19:34:57;100660.47;;;6.69;59.96
51603;BME280;37954;51.980;5.850;2023-03-26T19:39:11;100672.53;;;6.58;60.64
51603;BME280;37954;51.980;5.850;2023-03-26T19:43:24;100690.31;;;6.44;60.53
51603;BME280;37954;51.980;5.850;2023-03-26T19:47:39;100701.34;;;6.35;60.70
51603;BME280;37954;51.980;5.850;2023-03-26T19:56:21;100707.94;;;6.04;61.48
51603;BME280;37954;51.980;5.850;2023-03-26T20:00:33;100715.00;;;5.90;62.26
51603;BME280;37954;51.980;5.850;2023-03-26T20:04:45;100723.56;;;5.86;62.40
51603;BME280;37954;51.980;5.850;2023-03-26T20:08:57;100735.34;;;5.77;62.99
51603;BME280;37954;51.980;5.850;2023-03-26T20:13:14;100744.31;;;5.69;63.31
51603;BME280;37954;51.980;5.850;2023-03-26T20:17:26;100750.41;;;5.63;63.92
51603;BME280;37954;51.980;5.850;2023-03-26T20:21:41;100761.00;;;5.56;63.63
51603;BME280;37954;51.980;5.850;2023-03-26T20:25:53;100756.19;;;5.45;64.71
51603;BME280;37954;51.980;5.850;2023-03-26T20:30:06;100779.97;;;5.47;64.80
51603;BME280;37954;51.980;5.850;2023-03-26T20:34:22;100774.13;;;5.37;65.40
51603;BME280;37954;51.980;5.850;2023-03-26T20:38:34;100780.00;;;5.32;65.23
51603;BME280;37954;51.980;5.850;2023-03-26T20:42:50;100794.16;;;5.33;66.33
51603;BME280;37954;51.980;5.850;2023-03-26T20:47:02;100815.09;;;5.36;66.50
51603;BME280;37954;51.980;5.850;2023-03-26T20:51:14;100802.97;;;5.33;66.90
51603;BME280;37954;51.980;5.850;2023-03-26T20:55:26;100811.16;;;5.32;67.55
51603;BME280;37954;51.980;5.850;2023-03-26T20:59:38;100822.31;;;5.42;68.01
51603;BME280;37954;51.980;5.850;2023-03-26T21:03:50;100829.00;;;5.52;67.76
51603;BME280;37954;51.980;5.850;2023-03-26T21:08:02;100826.06;;;5.47;67.90
51603;BME280;37954;51.980;5.850;2023-03-26T21:12:23;100848.28;;;5.54;68.17
51603;BME280;37954;51.980;5.850;2023-03-26T21:16:38;100851.97;;;5.53;68.19
51603;BME280;37954;51.980;5.850;2023-03-26T21:21:00;100855.06;;;5.57;68.36
51603;BME280;37954;51.980;5.850;2023-03-26T21:30:09;100878.22;;;5.56;68.12
51603;BME280;37954;51.980;5.850;2023-03-26T21:34:21;100863.75;;;5.44;68.05
51603;BME280;37954;51.980;5.850;2023-03-26T21:38:33;100876.34;;;5.36;68.19
51603;BME280;37954;51.980;5.850;2023-03-26T21:42:48;100873.06;;;5.19;68.16
51603;BME280;37954;51.980;5.850;2023-03-26T21:47:01;100881.03;;;5.04;68.19
51603;BME280;37954;51.980;5.850;2023-03-26T21:51:13;100890.66;;;5.05;68.69
51603;BME280;37954;51.980;5.850;2023-03-26T21:55:25;100892.97;;;4.94;69.09
51603;BME280;37954;51.980;5.850;2023-03-26T21:59:54;100910.13;;;4.91;69.23
51603;BME280;37954;51.980;5.850;2023-03-26T22:04:20;100917.56;;;4.81;69.15
51603;BME280;37954;51.980;5.850;2023-03-26T22:08:40;100919.72;;;4.63;69.32
51603;BME280;37954;51.980;5.850;2023-03-26T22:12:52;100937.88;;;4.59;69.53
51603;BME280;37954;51.980;5.850;2023-03-26T22:17:04;100947.13;;;4.48;69.87
51603;BME280;37954;51.980;5.850;2023-03-26T22:21:16;100935.94;;;4.30;70.21
51603;BME280;37954;51.980;5.850;2023-03-26T22:25:28;100960.81;;;4.37;70.25
51603;BME280;37954;51.980;5.850;2023-03-26T22:29:40;100957.75;;;4.26;70.54
51603;BME280;37954;51.980;5.850;2023-03-26T22:33:53;100923.06;;;3.96;70.88
51603;BME280;37954;51.980;5.850;2023-03-26T22:38:05;100972.47;;;4.13;71.01
51603;BME280;37954;51.980;5.850;2023-03-26T22:42:17;100939.09;;;3.80;71.20
51603;BME280;37954;51.980;5.850;2023-03-26T22:46:30;100991.75;;;4.07;71.11
51603;BME280;37954;51.980;5.850;2023-03-26T22:50:41;100973.63;;;3.80;71.74
51603;BME280;37954;51.980;5.850;2023-03-26T22:54:54;100995.34;;;3.83;71.73
51603;BME280;37954;51.980;5.850;2023-03-26T22:59:06;101003.50;;;3.82;71.70
51603;BME280;37954;51.980;5.850;2023-03-26T23:03:19;101016.00;;;3.73;72.49
51603;BME280;37954;51.980;5.850;2023-03-26T23:07:46;101037.25;;;3.73;72.54
51603;BME280;37954;51.980;5.850;2023-03-26T23:11:59;101030.63;;;3.69;72.63
51603;BME280;37954;51.980;5.850;2023-03-26T23:16:12;101021.38;;;3.57;73.04
51603;BME280;37954;51.980;5.850;2023-03-26T23:20:25;101045.06;;;3.67;72.96
51603;BME280;37954;51.980;5.850;2023-03-26T23:24:38;101059.50;;;3.80;72.98
51603;BME280;37954;51.980;5.850;2023-03-26T23:28:50;101057.63;;;3.81;73.60
51603;BME280;37954;51.980;5.850;2023-03-26T23:33:02;101060.13;;;3.82;73.11
51603;BME280;37954;51.980;5.850;2023-03-26T23:37:14;101058.66;;;3.80;73.74
51603;BME280;37954;51.980;5.850;2023-03-26T23:41:33;101073.88;;;3.86;73.80
51603;BME280;37954;51.980;5.850;2023-03-26T23:45:46;101085.38;;;3.78;74.11
51603;BME280;37954;51.980;5.850;2023-03-26T23:50:03;101062.38;;;3.55;73.98
51603;BME280;37954;51.980;5.850;2023-03-26T23:54:15;101091.91;;;3.60;73.86
51603;BME280;37954;51.980;5.850;2023-03-26T23:58:28;101116.66;;;3.60;73.81
